createdAt,value
2023-03-26T00:00:45.022Z,96.06
2023-03-26T00:01:45.028Z,96.58
2023-03-26T00:02:45.054Z,96.79
2023-03-26T00:03:45.128Z,96.69
2023-03-26T00:04:44.982Z,96.48
2023-03-26T00:05:45.862Z,96.69
2023-03-26T00:06:44.969Z,96.89
2023-03-26T00:07:44.942Z,96.69
2023-03-26T00:08:44.975Z,96.06
2023-03-26T00:09:44.930Z,95.55
2023-03-26T00:10:44.928Z,95.45
2023-03-26T00:11:44.905Z,95.34
2023-03-26T00:12:44.918Z,95.45
2023-03-26T00:13:44.874Z,95.65
2023-03-26T00:14:44.888Z,95.86
2023-03-26T00:15:44.862Z,96.37
2023-03-26T00:16:44.901Z,95.65
2023-03-26T00:17:44.862Z,96.06
2023-03-26T00:18:44.837Z,96.69
2023-03-26T00:19:44.810Z,96.79
2023-03-26T00:20:44.828Z,96.89
2023-03-26T00:21:44.792Z,96.79
2023-03-26T00:22:44.791Z,95.86
2023-03-26T00:23:44.764Z,95.24
2023-03-26T00:24:44.773Z,95.55
2023-03-26T00:25:44.746Z,95.55
2023-03-26T00:26:44.809Z,93.69
2023-03-26T00:27:44.727Z,92.21
2023-03-26T00:28:44.735Z,91.58
2023-03-26T00:29:44.703Z,92.00
2023-03-26T00:30:44.721Z,91.89
2023-03-26T00:31:44.691Z,92.10
2023-03-26T00:32:44.714Z,92.31
2023-03-26T00:33:45.667Z,92.61
2023-03-26T00:34:44.665Z,92.10
2023-03-26T00:35:44.673Z,91.89
2023-03-26T00:36:44.641Z,92.10
2023-03-26T00:37:44.646Z,92.31
2023-03-26T00:38:44.627Z,92.41
2023-03-26T00:39:44.621Z,92.31
2023-03-26T00:40:44.611Z,92.31
2023-03-26T00:41:44.676Z,91.89
2023-03-26T00:42:44.581Z,91.69
2023-03-26T00:43:44.564Z,90.97
2023-03-26T00:44:44.565Z,91.58
2023-03-26T00:45:44.572Z,92.00
2023-03-26T00:46:44.591Z,92.00
2023-03-26T00:47:44.554Z,92.00
2023-03-26T00:48:45.787Z,92.00
2023-03-26T00:49:44.493Z,92.00
2023-03-26T00:50:44.504Z,91.89
2023-03-26T00:51:44.489Z,92.55
2023-03-26T00:52:44.464Z,94.17
2023-03-26T00:53:44.486Z,94.68
2023-03-26T00:54:44.442Z,94.72
2023-03-26T00:55:44.448Z,94.62
2023-03-26T00:56:44.474Z,94.72
2023-03-26T00:57:44.440Z,94.82
2023-03-26T00:58:44.395Z,94.42
2023-03-26T00:59:44.408Z,93.65
2023-03-26T01:00:46.790Z,92.72
2023-03-26T01:01:44.477Z,92.82
2023-03-26T01:02:44.424Z,93.54
2023-03-26T01:03:56.649Z,93.24
2023-03-26T01:04:45.406Z,93.24
2023-03-26T01:05:44.333Z,93.54
2023-03-26T01:06:44.315Z,93.75
2023-03-26T01:07:44.316Z,93.96
2023-03-26T01:08:44.301Z,94.06
2023-03-26T01:09:45.167Z,94.82
2023-03-26T01:10:44.276Z,95.03
2023-03-26T01:11:44.271Z,95.03
2023-03-26T01:12:44.252Z,95.96
2023-03-26T01:13:44.246Z,95.24
2023-03-26T01:14:44.235Z,95.65
2023-03-26T01:15:44.304Z,95.65
2023-03-26T01:16:44.203Z,95.55
2023-03-26T01:17:44.225Z,96.06
2023-03-26T01:18:44.194Z,96.48
2023-03-26T01:19:44.183Z,96.37
2023-03-26T01:20:44.165Z,95.96
2023-03-26T01:21:44.169Z,95.96
2023-03-26T01:22:44.139Z,96.17
2023-03-26T01:23:44.151Z,96.27
2023-03-26T01:24:44.130Z,95.90
2023-03-26T01:25:44.119Z,95.65
2023-03-26T01:26:44.358Z,95.14
2023-03-26T01:27:44.101Z,94.87
2023-03-26T01:28:44.070Z,94.87
2023-03-26T01:29:44.099Z,94.97
2023-03-26T01:30:44.062Z,94.82
2023-03-26T01:31:44.065Z,94.10
2023-03-26T01:32:44.357Z,93.59
2023-03-26T01:33:44.151Z,93.28
2023-03-26T01:34:44.022Z,93.28
2023-03-26T01:35:44.069Z,93.65
2023-03-26T01:36:44.204Z,93.38
2023-03-26T01:37:43.988Z,93.38
2023-03-26T01:38:43.968Z,93.69
2023-03-26T01:39:43.967Z,93.79
2023-03-26T01:40:43.943Z,93.49
2023-03-26T01:41:43.961Z,94.00
2023-03-26T01:42:43.933Z,93.79
2023-03-26T01:43:43.923Z,93.54
2023-03-26T01:44:43.906Z,93.18
2023-03-26T01:45:43.900Z,93.49
2023-03-26T01:46:44.769Z,93.65
2023-03-26T01:47:43.944Z,94.00
2023-03-26T01:48:43.863Z,93.79
2023-03-26T01:49:43.859Z,94.21
2023-03-26T01:50:43.843Z,94.62
2023-03-26T01:51:43.835Z,94.52
2023-03-26T01:52:43.827Z,94.52
2023-03-26T01:53:43.831Z,94.62
2023-03-26T01:54:44.619Z,94.93
2023-03-26T01:55:43.793Z,94.31
2023-03-26T01:56:43.790Z,94.52
2023-03-26T01:57:43.771Z,94.10
2023-03-26T01:58:43.759Z,93.69
2023-03-26T01:59:43.755Z,93.59
2023-03-26T02:00:43.737Z,92.66
2023-03-26T02:01:43.782Z,92.35
2023-03-26T02:02:43.800Z,92.46
2023-03-26T02:03:43.793Z,92.55
2023-03-26T02:04:43.689Z,92.55
2023-03-26T02:05:43.708Z,92.35
2023-03-26T02:06:43.669Z,92.25
2023-03-26T02:07:43.661Z,93.38
2023-03-26T02:08:43.655Z,92.97
2023-03-26T02:09:43.649Z,93.28
2023-03-26T02:10:43.627Z,93.18
2023-03-26T02:11:43.625Z,93.07
2023-03-26T02:12:43.605Z,92.25
2023-03-26T02:13:44.125Z,92.14
2023-03-26T02:14:43.606Z,92.14
2023-03-26T02:15:43.579Z,91.89
2023-03-26T02:16:43.618Z,92.14
2023-03-26T02:17:43.583Z,91.52
2023-03-26T02:18:43.537Z,90.97
2023-03-26T02:19:43.547Z,90.97
2023-03-26T02:20:43.518Z,90.86
2023-03-26T02:21:43.525Z,91.01
2023-03-26T02:22:43.491Z,91.11
2023-03-26T02:23:43.502Z,91.32
2023-03-26T02:24:43.470Z,91.42
2023-03-26T02:25:43.478Z,91.63
2023-03-26T02:26:43.448Z,91.83
2023-03-26T02:27:43.452Z,92.55
2023-03-26T02:28:43.427Z,91.52
2023-03-26T02:29:43.434Z,91.42
2023-03-26T02:30:43.419Z,92.25
2023-03-26T02:31:43.572Z,91.42
2023-03-26T02:32:43.441Z,91.01
2023-03-26T02:33:43.383Z,90.91
2023-03-26T02:34:43.369Z,90.49
2023-03-26T02:35:43.451Z,90.91
2023-03-26T02:36:43.460Z,91.17
2023-03-26T02:37:43.363Z,90.59
2023-03-26T02:38:43.328Z,90.70
2023-03-26T02:39:44.135Z,90.80
2023-03-26T02:40:43.303Z,90.49
2023-03-26T02:41:43.302Z,90.19
2023-03-26T02:42:43.280Z,90.35
2023-03-26T02:43:43.293Z,90.14
2023-03-26T02:44:43.263Z,90.25
2023-03-26T02:45:43.294Z,90.04
2023-03-26T02:46:43.232Z,90.14
2023-03-26T02:47:43.326Z,90.25
2023-03-26T02:48:43.234Z,90.55
2023-03-26T02:49:43.206Z,90.49
2023-03-26T02:50:43.184Z,90.28
2023-03-26T02:51:43.188Z,90.49
2023-03-26T02:52:43.200Z,90.59
2023-03-26T02:53:43.180Z,90.80
2023-03-26T02:54:43.148Z,90.70
2023-03-26T02:55:43.153Z,90.80
2023-03-26T02:56:43.171Z,90.39
2023-03-26T02:57:43.136Z,90.59
2023-03-26T02:58:43.109Z,90.59
2023-03-26T02:59:43.099Z,91.01
2023-03-26T03:00:43.084Z,90.91
2023-03-26T03:01:43.132Z,91.22
2023-03-26T03:02:43.130Z,90.91
2023-03-26T03:03:43.064Z,90.59
2023-03-26T03:04:43.037Z,90.08
2023-03-26T03:05:43.104Z,89.87
2023-03-26T03:06:43.720Z,90.59
2023-03-26T03:07:43.041Z,89.87
2023-03-26T03:08:43.000Z,90.19
2023-03-26T03:09:43.009Z,90.28
2023-03-26T03:10:42.989Z,89.98
2023-03-26T03:11:42.974Z,89.46
2023-03-26T03:12:42.957Z,89.67
2023-03-26T03:13:42.956Z,89.36
2023-03-26T03:14:42.936Z,89.25
2023-03-26T03:15:42.933Z,88.70
2023-03-26T03:16:42.955Z,88.59
2023-03-26T03:17:42.946Z,88.90
2023-03-26T03:18:43.127Z,88.59
2023-03-26T03:19:42.896Z,88.90
2023-03-26T03:20:42.871Z,88.80
2023-03-26T03:21:42.880Z,88.70
2023-03-26T03:22:42.849Z,89.42
2023-03-26T03:23:42.844Z,89.22
2023-03-26T03:24:42.828Z,87.77
2023-03-26T03:25:42.841Z,88.29
2023-03-26T03:26:42.815Z,88.59
2023-03-26T03:27:42.883Z,88.29
2023-03-26T03:28:42.797Z,88.70
2023-03-26T03:29:42.785Z,88.18
2023-03-26T03:30:43.647Z,88.08
2023-03-26T03:31:42.768Z,87.35
2023-03-26T03:32:42.813Z,87.05
2023-03-26T03:33:42.747Z,86.70
2023-03-26T03:34:42.722Z,86.90
2023-03-26T03:35:42.763Z,86.60
2023-03-26T03:36:42.707Z,86.70
2023-03-26T03:37:42.722Z,87.11
2023-03-26T03:38:42.680Z,87.32
2023-03-26T03:39:43.502Z,88.14
2023-03-26T03:40:42.919Z,88.45
2023-03-26T03:41:42.668Z,87.52
2023-03-26T03:42:42.648Z,87.87
2023-03-26T03:43:42.646Z,88.70
2023-03-26T03:44:42.616Z,88.29
2023-03-26T03:45:42.616Z,87.46
2023-03-26T03:46:42.660Z,87.05
2023-03-26T03:47:42.751Z,86.02
2023-03-26T03:48:42.589Z,85.50
2023-03-26T03:49:42.581Z,86.12
2023-03-26T03:50:42.568Z,86.18
2023-03-26T03:51:42.570Z,86.60
2023-03-26T03:52:43.354Z,86.43
2023-03-26T03:53:42.553Z,86.22
2023-03-26T03:54:42.514Z,86.53
2023-03-26T03:55:42.504Z,87.77
2023-03-26T03:56:42.535Z,85.39
2023-03-26T03:57:42.490Z,85.46
2023-03-26T03:58:42.480Z,84.22
2023-03-26T03:59:47.908Z,83.81
2023-03-26T04:00:43.456Z,83.71
2023-03-26T04:01:42.443Z,83.56
2023-03-26T04:02:42.576Z,83.71
2023-03-26T04:03:42.553Z,83.87
2023-03-26T04:04:42.452Z,84.29
2023-03-26T04:05:42.408Z,84.80
2023-03-26T04:06:42.374Z,84.84
2023-03-26T04:07:42.404Z,85.15
2023-03-26T04:08:42.362Z,85.87
2023-03-26T04:09:42.370Z,85.97
2023-03-26T04:10:42.337Z,87.32
2023-03-26T04:11:42.352Z,85.67
2023-03-26T04:12:42.327Z,85.36
2023-03-26T04:13:42.319Z,85.36
2023-03-26T04:14:42.292Z,85.36
2023-03-26T04:15:42.348Z,85.77
2023-03-26T04:16:42.269Z,84.94
2023-03-26T04:17:42.428Z,84.01
2023-03-26T04:18:42.271Z,83.81
2023-03-26T04:19:42.252Z,84.01
2023-03-26T04:20:42.225Z,84.22
2023-03-26T04:21:42.220Z,84.12
2023-03-26T04:22:42.205Z,84.74
2023-03-26T04:23:42.302Z,85.05
2023-03-26T04:24:42.190Z,84.22
2023-03-26T04:25:42.181Z,85.67
2023-03-26T04:26:42.168Z,84.53
2023-03-26T04:27:42.172Z,84.43
2023-03-26T04:28:42.353Z,84.64
2023-03-26T04:29:42.151Z,83.91
2023-03-26T04:30:42.132Z,83.81
2023-03-26T04:31:42.238Z,83.26
2023-03-26T04:32:42.168Z,84.64
2023-03-26T04:33:42.114Z,83.98
2023-03-26T04:34:42.103Z,83.29
2023-03-26T04:35:42.115Z,84.33
2023-03-26T04:36:42.056Z,83.19
2023-03-26T04:37:42.061Z,83.09
2023-03-26T04:38:42.078Z,83.09
2023-03-26T04:39:42.055Z,82.64
2023-03-26T04:40:42.020Z,82.54
2023-03-26T04:41:42.017Z,82.54
2023-03-26T04:42:41.993Z,82.84
2023-03-26T04:43:42.006Z,82.78
2023-03-26T04:44:41.982Z,84.22
2023-03-26T04:45:41.974Z,83.91
2023-03-26T04:46:41.975Z,84.94
2023-03-26T04:47:42.066Z,84.53
2023-03-26T04:48:41.926Z,84.22
2023-03-26T04:49:41.940Z,84.12
2023-03-26T04:50:41.906Z,84.64
2023-03-26T04:51:41.967Z,85.81
2023-03-26T04:52:43.873Z,85.50
2023-03-26T04:53:42.021Z,85.30
2023-03-26T04:54:42.042Z,85.60
2023-03-26T04:55:41.868Z,85.09
2023-03-26T04:56:41.918Z,84.67
2023-03-26T04:57:41.842Z,85.71
2023-03-26T04:58:41.817Z,85.91
2023-03-26T04:59:41.836Z,85.39
2023-03-26T05:00:41.827Z,85.71
2023-03-26T05:01:41.839Z,85.30
2023-03-26T05:02:41.797Z,85.39
2023-03-26T05:03:41.948Z,85.60
2023-03-26T05:04:41.825Z,85.91
2023-03-26T05:05:41.752Z,86.22
2023-03-26T05:06:41.756Z,86.43
2023-03-26T05:07:41.721Z,86.22
2023-03-26T05:08:41.812Z,87.56
2023-03-26T05:09:41.703Z,87.15
2023-03-26T05:10:41.699Z,87.29
2023-03-26T05:11:41.701Z,86.78
2023-03-26T05:12:41.693Z,86.36
2023-03-26T05:13:41.668Z,86.47
2023-03-26T05:14:42.440Z,87.08
2023-03-26T05:15:41.668Z,86.05
2023-03-26T05:16:41.691Z,86.43
2023-03-26T05:17:41.887Z,86.94
2023-03-26T05:18:41.613Z,86.94
2023-03-26T05:19:41.620Z,86.12
2023-03-26T05:20:41.606Z,86.47
2023-03-26T05:21:41.575Z,86.47
2023-03-26T05:22:41.574Z,85.64
2023-03-26T05:23:41.558Z,86.02
2023-03-26T05:24:41.556Z,86.57
2023-03-26T05:25:41.538Z,86.98
2023-03-26T05:26:41.538Z,87.92
2023-03-26T05:27:41.506Z,87.50
2023-03-26T05:28:41.514Z,88.64
2023-03-26T05:29:41.490Z,88.53
2023-03-26T05:30:41.493Z,87.60
2023-03-26T05:31:41.462Z,86.98
2023-03-26T05:32:41.514Z,87.40
2023-03-26T05:33:41.539Z,86.36
2023-03-26T05:34:41.469Z,85.64
2023-03-26T05:35:41.449Z,86.26
2023-03-26T05:36:41.441Z,87.40
2023-03-26T05:37:41.396Z,86.68
2023-03-26T05:38:41.396Z,86.26
2023-03-26T05:39:41.420Z,86.74
2023-03-26T05:40:41.385Z,86.98
2023-03-26T05:41:41.363Z,86.26
2023-03-26T05:42:41.369Z,84.92
2023-03-26T05:43:41.337Z,85.54
2023-03-26T05:44:41.338Z,85.71
2023-03-26T05:45:41.375Z,85.39
2023-03-26T05:46:41.323Z,84.78
2023-03-26T05:47:41.358Z,84.78
2023-03-26T05:48:41.296Z,84.78
2023-03-26T05:49:41.269Z,85.09
2023-03-26T05:50:41.283Z,84.78
2023-03-26T05:51:41.252Z,84.84
2023-03-26T05:52:41.249Z,85.05
2023-03-26T05:53:41.242Z,85.25
2023-03-26T05:54:41.235Z,85.57
2023-03-26T05:55:41.209Z,85.97
2023-03-26T05:56:41.254Z,86.49
2023-03-26T05:57:41.193Z,86.08
2023-03-26T05:58:41.202Z,86.18
2023-03-26T05:59:41.160Z,87.01
2023-03-26T06:00:41.165Z,87.21
2023-03-26T06:01:41.151Z,87.93
2023-03-26T06:02:41.184Z,88.59
2023-03-26T06:03:41.188Z,89.01
2023-03-26T06:04:41.349Z,89.52
2023-03-26T06:05:41.111Z,89.52
2023-03-26T06:06:41.101Z,90.25
2023-03-26T06:07:41.088Z,92.00
2023-03-26T06:08:41.262Z,92.61
2023-03-26T06:09:41.085Z,93.13
2023-03-26T06:10:41.062Z,93.03
2023-03-26T06:11:41.054Z,93.96
2023-03-26T06:12:41.430Z,93.54
2023-03-26T06:13:41.018Z,91.69
2023-03-26T06:14:41.033Z,93.13
2023-03-26T06:15:41.074Z,91.54
2023-03-26T06:16:41.005Z,91.96
2023-03-26T06:17:41.040Z,91.03
2023-03-26T06:18:41.035Z,89.38
2023-03-26T06:19:40.966Z,89.89
2023-03-26T06:20:40.978Z,92.06
2023-03-26T06:21:40.931Z,93.24
2023-03-26T06:22:40.957Z,93.75
2023-03-26T06:23:40.922Z,93.85
2023-03-26T06:24:40.921Z,94.27
2023-03-26T06:25:40.893Z,95.40
2023-03-26T06:26:40.885Z,93.96
2023-03-26T06:27:40.936Z,93.85
2023-03-26T06:28:40.887Z,93.96
2023-03-26T06:29:40.849Z,93.54
2023-03-26T06:30:40.843Z,93.13
2023-03-26T06:31:40.884Z,92.51
2023-03-26T06:32:40.896Z,92.61
2023-03-26T06:33:40.804Z,93.54
2023-03-26T06:34:40.804Z,94.57
2023-03-26T06:35:40.797Z,94.17
2023-03-26T06:36:41.191Z,93.96
2023-03-26T06:37:40.762Z,94.06
2023-03-26T06:38:40.763Z,93.13
2023-03-26T06:39:40.742Z,93.03
2023-03-26T06:40:41.037Z,93.03
2023-03-26T06:41:40.729Z,91.48
2023-03-26T06:43:08.341Z,92.31
2023-03-26T06:43:41.697Z,92.72
2023-03-26T06:44:40.708Z,91.48
2023-03-26T06:45:40.688Z,91.69
2023-03-26T06:46:40.765Z,92.10
2023-03-26T06:47:40.682Z,91.38
2023-03-26T06:48:40.662Z,91.54
2023-03-26T06:49:40.637Z,91.44
2023-03-26T06:50:40.648Z,88.56
2023-03-26T06:51:40.624Z,87.52
2023-03-26T06:52:40.618Z,89.28
2023-03-26T06:53:40.589Z,90.20
2023-03-26T06:54:40.592Z,90.51
2023-03-26T06:55:40.585Z,90.10
2023-03-26T06:56:40.614Z,90.31
2023-03-26T06:57:40.566Z,90.20
2023-03-26T06:58:40.569Z,90.72
2023-03-26T06:59:40.536Z,91.03
2023-03-26T07:00:40.565Z,92.16
2023-03-26T07:01:40.566Z,93.30
2023-03-26T07:02:40.565Z,92.99
2023-03-26T07:03:40.535Z,92.88
2023-03-26T07:04:40.488Z,94.23
2023-03-26T07:05:40.478Z,95.25
2023-03-26T07:06:40.457Z,94.68
2023-03-26T07:07:46.405Z,95.09
2023-03-26T07:08:41.494Z,94.37
2023-03-26T07:09:40.428Z,93.75
2023-03-26T07:10:40.429Z,95.71
2023-03-26T07:11:40.419Z,95.61
2023-03-26T07:12:40.405Z,95.30
2023-03-26T07:13:40.388Z,96.12
2023-03-26T07:14:40.389Z,97.16
2023-03-26T07:15:40.371Z,97.92
2023-03-26T07:16:40.401Z,98.33
2023-03-26T07:17:40.359Z,98.85
2023-03-26T07:18:40.342Z,99.37
2023-03-26T07:19:40.320Z,99.99
2023-03-26T07:20:40.345Z,99.99
2023-03-26T07:21:40.293Z,99.99
2023-03-26T07:22:40.302Z,99.99
2023-03-26T07:23:40.281Z,99.99
2023-03-26T07:24:40.285Z,99.99
2023-03-26T07:25:40.254Z,99.99
2023-03-26T07:26:40.253Z,99.99
2023-03-26T07:27:40.244Z,99.99
2023-03-26T07:28:40.229Z,99.99
2023-03-26T07:29:40.205Z,99.99
2023-03-26T07:30:40.232Z,99.99
2023-03-26T07:31:40.223Z,99.99
2023-03-26T07:32:40.412Z,99.99
2023-03-26T07:33:40.171Z,99.99
2023-03-26T07:34:40.166Z,99.99
2023-03-26T07:35:40.180Z,99.99
2023-03-26T07:36:40.149Z,99.99
2023-03-26T07:37:40.130Z,99.99
2023-03-26T07:38:40.128Z,99.99
2023-03-26T07:39:40.128Z,99.99
2023-03-26T07:40:40.121Z,99.99
2023-03-26T07:41:40.083Z,99.99
2023-03-26T07:42:40.091Z,99.99
2023-03-26T07:43:40.064Z,99.99
2023-03-26T07:44:41.030Z,99.99
2023-03-26T07:45:40.083Z,99.99
2023-03-26T07:46:40.042Z,99.99
2023-03-26T07:47:40.042Z,99.99
2023-03-26T07:48:40.046Z,99.99
2023-03-26T07:49:39.994Z,99.99
2023-03-26T07:50:40.075Z,99.99
2023-03-26T07:51:39.986Z,99.99
2023-03-26T07:52:40.418Z,99.99
2023-03-26T07:53:40.210Z,99.99
2023-03-26T07:54:39.957Z,99.99
2023-03-26T07:55:39.933Z,99.99
2023-03-26T07:56:40.057Z,99.99
2023-03-26T07:57:39.942Z,99.99
2023-03-26T07:58:39.909Z,99.99
2023-03-26T07:59:39.890Z,99.99
2023-03-26T08:00:39.888Z,99.99
2023-03-26T08:01:39.880Z,99.99
2023-03-26T08:02:39.884Z,99.99
2023-03-26T08:03:39.932Z,99.99
2023-03-26T08:04:39.928Z,99.99
2023-03-26T08:05:39.834Z,99.99
2023-03-26T08:06:39.844Z,99.99
2023-03-26T08:07:39.807Z,99.99
2023-03-26T08:08:39.810Z,99.99
2023-03-26T08:09:39.796Z,99.99
2023-03-26T08:10:39.809Z,99.99
2023-03-26T08:11:39.757Z,99.99
2023-03-26T08:12:39.757Z,99.99
2023-03-26T08:13:40.713Z,99.99
2023-03-26T08:14:39.738Z,99.99
2023-03-26T08:15:39.765Z,99.99
2023-03-26T08:16:39.722Z,99.99
2023-03-26T08:17:39.764Z,99.99
2023-03-26T08:18:39.695Z,99.99
2023-03-26T08:19:39.676Z,99.99
2023-03-26T08:20:39.690Z,99.99
2023-03-26T08:21:39.695Z,99.99
2023-03-26T08:22:39.652Z,99.99
2023-03-26T08:23:50.668Z,99.99
2023-03-26T08:24:40.637Z,99.99
2023-03-26T08:25:39.730Z,99.99
2023-03-26T08:26:39.624Z,99.99
2023-03-26T08:27:39.584Z,99.99
2023-03-26T08:28:39.596Z,99.99
2023-03-26T08:29:39.576Z,99.99
2023-03-26T08:30:39.558Z,99.99
2023-03-26T08:31:39.771Z,99.99
2023-03-26T08:32:39.590Z,99.99
2023-03-26T08:33:39.530Z,99.99
2023-03-26T08:34:39.541Z,99.99
2023-03-26T08:35:39.520Z,99.99
2023-03-26T08:36:39.495Z,99.99
2023-03-26T08:37:39.482Z,99.99
2023-03-26T08:38:39.511Z,99.99
2023-03-26T08:39:39.807Z,99.99
2023-03-26T08:40:39.461Z,99.99
2023-03-26T08:41:39.436Z,99.99
2023-03-26T08:42:40.245Z,99.99
2023-03-26T08:43:40.233Z,99.99
2023-03-26T08:44:39.421Z,99.99
2023-03-26T08:45:39.393Z,99.99
2023-03-26T08:46:39.426Z,99.99
2023-03-26T08:47:39.432Z,99.99
2023-03-26T08:48:39.404Z,99.99
2023-03-26T08:49:39.373Z,99.99
2023-03-26T08:50:39.366Z,99.99
2023-03-26T08:51:39.344Z,99.99
2023-03-26T08:52:40.136Z,99.99
2023-03-26T08:53:39.450Z,99.99
2023-03-26T08:54:39.317Z,99.99
2023-03-26T08:55:39.296Z,99.99
2023-03-26T08:56:39.310Z,99.99
2023-03-26T08:57:39.266Z,99.99
2023-03-26T08:58:39.277Z,99.99
2023-03-26T08:59:39.256Z,99.99
2023-03-26T09:00:39.256Z,99.99
2023-03-26T09:01:39.344Z,99.99
2023-03-26T09:02:39.274Z,99.99
2023-03-26T09:03:39.242Z,99.99
2023-03-26T09:04:39.207Z,99.99
2023-03-26T09:05:39.190Z,99.99
2023-03-26T09:06:39.184Z,99.99
2023-03-26T09:07:39.165Z,99.99
2023-03-26T09:08:39.162Z,99.99
2023-03-26T09:09:40.143Z,99.99
2023-03-26T09:10:39.137Z,99.99
2023-03-26T09:11:39.135Z,99.99
2023-03-26T09:12:39.121Z,99.99
2023-03-26T09:13:39.124Z,99.99
2023-03-26T09:14:39.100Z,99.99
2023-03-26T09:15:39.097Z,99.99
2023-03-26T09:16:39.124Z,99.99
2023-03-26T09:17:39.079Z,99.99
2023-03-26T09:18:39.067Z,99.99
2023-03-26T09:19:39.039Z,99.85
2023-03-26T09:20:40.003Z,99.74
2023-03-26T09:21:39.023Z,99.90
2023-03-26T09:22:39.007Z,99.99
2023-03-26T09:23:38.999Z,99.99
2023-03-26T09:24:39.006Z,99.90
2023-03-26T09:25:38.990Z,99.99
2023-03-26T09:26:39.188Z,99.99
2023-03-26T09:27:38.970Z,99.99
2023-03-26T09:28:38.944Z,99.99
2023-03-26T09:29:38.939Z,99.99
2023-03-26T09:30:38.936Z,99.60
2023-03-26T09:31:38.971Z,99.49
2023-03-26T09:32:38.930Z,99.99
2023-03-26T09:33:38.897Z,99.99
2023-03-26T09:34:38.882Z,99.99
2023-03-26T09:35:38.906Z,99.34
2023-03-26T09:36:38.971Z,99.14
2023-03-26T09:37:56.963Z,99.04
2023-03-26T09:38:39.846Z,99.34
2023-03-26T09:39:38.831Z,99.24
2023-03-26T09:40:38.820Z,98.88
2023-03-26T09:41:38.805Z,99.09
2023-03-26T09:42:39.751Z,98.88
2023-03-26T09:43:39.768Z,98.58
2023-03-26T09:44:38.800Z,97.75
2023-03-26T09:45:38.840Z,98.53
2023-03-26T09:46:38.744Z,98.43
2023-03-26T09:47:38.754Z,98.43
2023-03-26T09:48:38.732Z,98.33
2023-03-26T09:49:38.729Z,98.74
2023-03-26T09:50:38.708Z,98.74
2023-03-26T09:51:38.716Z,98.84
2023-03-26T09:52:38.678Z,98.33
2023-03-26T09:53:38.678Z,97.86
2023-03-26T09:54:38.672Z,98.47
2023-03-26T09:55:38.661Z,98.88
2023-03-26T09:56:39.590Z,99.09
2023-03-26T09:57:38.653Z,97.69
2023-03-26T09:58:38.614Z,97.90
2023-03-26T09:59:38.611Z,98.47
2023-03-26T10:00:38.602Z,98.21
2023-03-26T10:01:38.625Z,97.49
2023-03-26T10:02:46.348Z,97.24
2023-03-26T10:03:39.566Z,97.03
2023-03-26T10:04:38.610Z,97.86
2023-03-26T10:05:38.549Z,97.55
2023-03-26T10:06:38.536Z,97.14
2023-03-26T10:07:38.525Z,97.86
2023-03-26T10:08:38.502Z,97.50
2023-03-26T10:09:38.502Z,98.33
2023-03-26T10:10:38.508Z,97.91
2023-03-26T10:11:38.491Z,97.61
2023-03-26T10:12:38.470Z,97.81
2023-03-26T10:13:38.463Z,97.25
2023-03-26T10:14:38.440Z,98.18
2023-03-26T10:15:38.444Z,95.71
2023-03-26T10:16:38.481Z,95.50
2023-03-26T10:17:38.705Z,96.02
2023-03-26T10:18:38.404Z,96.53
2023-03-26T10:19:38.408Z,97.52
2023-03-26T10:20:38.380Z,97.20
2023-03-26T10:21:38.394Z,96.12
2023-03-26T10:22:38.356Z,96.43
2023-03-26T10:23:38.353Z,97.05
2023-03-26T10:24:38.340Z,97.66
2023-03-26T10:25:38.334Z,96.73
2023-03-26T10:26:38.307Z,97.45
2023-03-26T10:27:38.332Z,98.03
2023-03-26T10:28:38.507Z,98.54
2023-03-26T10:29:39.224Z,97.88
2023-03-26T10:30:38.328Z,97.67
2023-03-26T10:31:39.064Z,95.42
2023-03-26T10:32:38.268Z,95.62
2023-03-26T10:33:38.245Z,96.81
2023-03-26T10:34:38.230Z,95.53
2023-03-26T10:35:38.254Z,94.92
2023-03-26T10:36:38.206Z,94.98
2023-03-26T10:37:38.212Z,93.90
2023-03-26T10:38:38.383Z,93.96
2023-03-26T10:39:39.444Z,94.89
2023-03-26T10:40:38.485Z,92.06
2023-03-26T10:41:38.955Z,93.19
2023-03-26T10:42:38.136Z,94.52
2023-03-26T10:43:38.135Z,94.32
2023-03-26T10:44:38.114Z,93.76
2023-03-26T10:45:38.126Z,94.37
2023-03-26T10:46:38.128Z,94.17
2023-03-26T10:47:38.124Z,93.76
2023-03-26T10:48:38.073Z,94.27
2023-03-26T10:49:38.069Z,94.89
2023-03-26T10:50:38.066Z,93.76
2023-03-26T10:51:38.047Z,94.17
2023-03-26T10:52:38.037Z,90.42
2023-03-26T10:53:38.035Z,91.44
2023-03-26T10:54:38.021Z,91.96
2023-03-26T10:55:38.008Z,92.98
2023-03-26T10:56:38.050Z,92.88
2023-03-26T10:57:37.995Z,92.88
2023-03-26T10:58:49.330Z,91.96
2023-03-26T10:59:38.980Z,92.98
2023-03-26T11:00:37.950Z,93.13
2023-03-26T11:01:38.814Z,93.64
2023-03-26T11:02:37.988Z,94.05
2023-03-26T11:03:37.937Z,94.05
2023-03-26T11:04:37.908Z,94.92
2023-03-26T11:05:37.927Z,94.30
2023-03-26T11:06:37.896Z,94.81
2023-03-26T11:07:37.891Z,95.23
2023-03-26T11:08:37.864Z,94.40
2023-03-26T11:09:37.868Z,94.51
2023-03-26T11:10:37.838Z,94.71
2023-03-26T11:11:37.844Z,93.89
2023-03-26T11:12:37.820Z,94.51
2023-03-26T11:13:37.822Z,94.10
2023-03-26T11:14:37.798Z,94.20
2023-03-26T11:15:37.855Z,93.23
2023-03-26T11:16:37.783Z,92.10
2023-03-26T11:17:39.436Z,92.51
2023-03-26T11:18:37.760Z,91.55
2023-03-26T11:19:37.764Z,90.93
2023-03-26T11:20:38.377Z,91.86
2023-03-26T11:21:37.737Z,91.75
2023-03-26T11:22:37.717Z,91.35
2023-03-26T11:23:37.714Z,90.52
2023-03-26T11:24:37.692Z,90.83
2023-03-26T11:25:37.698Z,90.99
2023-03-26T11:26:39.371Z,90.48
2023-03-26T11:27:37.666Z,89.66
2023-03-26T11:28:37.650Z,89.36
2023-03-26T11:29:37.661Z,90.64
2023-03-26T11:30:37.624Z,91.16
2023-03-26T11:31:37.718Z,89.27
2023-03-26T11:32:37.668Z,88.62
2023-03-26T11:33:37.622Z,86.16
2023-03-26T11:34:38.630Z,87.35
2023-03-26T11:35:39.697Z,87.04
2023-03-26T11:36:37.584Z,84.99
2023-03-26T11:37:37.566Z,85.97
2023-03-26T11:38:37.810Z,87.10
2023-03-26T11:39:37.550Z,88.39
2023-03-26T11:40:37.529Z,84.71
2023-03-26T11:41:37.525Z,80.83
2023-03-26T11:42:37.502Z,82.42
2023-03-26T11:43:37.505Z,84.47
2023-03-26T11:44:37.471Z,84.63
2023-03-26T11:45:37.471Z,84.83
2023-03-26T11:46:37.529Z,85.82
2023-03-26T11:47:37.471Z,83.78
2023-03-26T11:48:37.432Z,82.86
2023-03-26T11:49:37.436Z,81.73
2023-03-26T11:50:37.413Z,83.53
2023-03-26T11:51:37.417Z,82.51
2023-03-26T11:52:37.392Z,77.21
2023-03-26T11:53:37.398Z,77.82
2023-03-26T11:54:37.363Z,79.80
2023-03-26T11:55:37.381Z,81.02
2023-03-26T11:56:37.386Z,81.67
2023-03-26T11:57:37.430Z,83.40
2023-03-26T11:58:37.325Z,83.20
2023-03-26T11:59:45.602Z,82.73
2023-03-26T12:00:38.305Z,84.57
2023-03-26T12:01:37.360Z,84.77
2023-03-26T12:02:37.380Z,85.32
2023-03-26T12:03:37.281Z,84.98
2023-03-26T12:04:37.328Z,85.32
2023-03-26T12:05:37.264Z,83.69
2023-03-26T12:06:37.620Z,85.06
2023-03-26T12:07:37.255Z,85.61
2023-03-26T12:08:37.279Z,85.20
2023-03-26T12:09:37.278Z,85.55
2023-03-26T12:10:37.209Z,87.73
2023-03-26T12:11:37.185Z,86.81
2023-03-26T12:12:37.166Z,87.63
2023-03-26T12:13:37.182Z,88.65
2023-03-26T12:14:37.150Z,88.53
2023-03-26T12:15:37.152Z,89.56
2023-03-26T12:16:37.142Z,91.67
2023-03-26T12:17:37.138Z,90.89
2023-03-26T12:18:37.110Z,90.58
2023-03-26T12:19:37.099Z,90.73
2023-03-26T12:20:37.083Z,91.24
2023-03-26T12:21:37.080Z,91.50
2023-03-26T12:22:37.058Z,92.12
2023-03-26T12:23:37.067Z,91.35
2023-03-26T12:24:37.051Z,92.36
2023-03-26T12:25:37.032Z,94.01
2023-03-26T12:26:37.013Z,93.54
2023-03-26T12:27:37.011Z,93.68
2023-03-26T12:28:36.993Z,94.40
2023-03-26T12:29:37.002Z,94.96
2023-03-26T12:30:36.969Z,95.37
2023-03-26T12:31:36.986Z,94.45
2023-03-26T12:32:45.810Z,93.79
2023-03-26T12:33:37.951Z,93.85
2023-03-26T12:34:36.946Z,93.95
2023-03-26T12:35:36.972Z,93.60
2023-03-26T12:36:36.906Z,91.82
2023-03-26T12:37:36.912Z,90.79
2023-03-26T12:38:36.883Z,92.38
2023-03-26T12:40:07.284Z,90.34
2023-03-26T12:40:37.864Z,89.37
2023-03-26T12:44:42.665Z,91.03
2023-03-26T12:44:49.558Z,85.67
2023-03-26T12:44:50.880Z,87.51
2023-03-26T12:44:56.402Z,87.71
2023-03-26T12:45:37.828Z,85.85
2023-03-26T12:47:56.942Z,89.33
2023-03-26T12:48:01.246Z,89.33
2023-03-26T12:48:37.886Z,89.84
2023-03-26T12:49:36.770Z,91.27
2023-03-26T12:50:36.760Z,90.70
2023-03-26T12:51:36.750Z,90.60
2023-03-26T12:52:36.732Z,91.63